Time;durP1;ratioP1;P1;durP2;ratioP2;P2;SDS_P1;SDS_P2;PMS_P1;PMS_P2;Temp;Humidity;BMP_temperature;BMP_pressure;BME280_temperature;BME280_humidity;BME280_pressure;Samples;Min_cycle;Max_cycle;Signal;HPM_P1;HPM_P2
2021/07/31 00:00:20;;;;;;;2.20;1.60;;;;;24.30;99567.00;;;;2057717;28;20223;-67
2021/07/31 00:01:20;;;;;;;3.70;2.00;;;;;24.30;99557.00;;;;2056109;28;20242;-67
2021/07/31 00:02:22;;;;;;;4.63;1.87;;;;;24.30;99570.00;;;;2059629;28;20244;-67
2021/07/31 00:03:23;;;;;;;2.65;2.00;;;;;24.30;99560.00;;;;2056800;28;20781;-66
2021/07/31 00:04:23;;;;;;;2.90;2.07;;;;;24.30;99557.00;;;;2058922;28;20223;-66
2021/07/31 00:05:23;;;;;;;2.93;1.63;;;;;24.30;99562.00;;;;2062547;28;20207;-66
2021/07/31 00:06:24;;;;;;;2.13;1.70;;;;;24.30;99561.00;;;;2058779;28;20660;-66
2021/07/31 00:07:24;;;;;;;2.23;1.60;;;;;24.30;99564.00;;;;2061234;28;20241;-68
2021/07/31 00:08:24;;;;;;;1.60;1.30;;;;;24.30;99553.00;;;;2050250;28;20223;-68
2021/07/31 00:09:25;;;;;;;4.77;1.70;;;;;24.30;99557.00;;;;2045826;28;20220;-67
2021/07/31 00:10:25;;;;;;;5.40;1.83;;;;;24.30;99565.00;;;;2053878;28;20226;-66
2021/07/31 00:11:26;;;;;;;2.40;1.80;;;;;24.30;99562.00;;;;2059143;28;20219;-66
2021/07/31 00:12:26;;;;;;;1.93;1.50;;;;;24.30;99557.00;;;;2059025;28;20254;-66
2021/07/31 00:13:26;;;;;;;3.53;1.63;;;;;24.30;99561.00;;;;2058906;28;20215;-66
2021/07/31 00:14:31;;;;;;;4.67;1.90;;;;;24.30;99561.00;;;;2062129;28;20225;-68
2021/07/31 00:15:31;;;;;;;2.00;1.80;;;;;24.30;99557.00;;;;2061282;28;20230;-66
2021/07/31 00:16:31;;;;;;;2.53;1.60;;;;;24.30;99556.00;;;;2059706;28;20207;-67
2021/07/31 00:17:32;;;;;;;4.70;2.03;;;;;24.20;99562.00;;;;2059701;28;20227;-66
2021/07/31 00:18:32;;;;;;;2.37;1.73;;;;;24.20;99553.00;;;;2049496;28;20219;-66
2021/07/31 00:19:32;;;;;;;4.10;1.53;;;;;24.20;99567.00;;;;2057590;28;20215;-66
2021/07/31 00:20:33;;;;;;;4.70;1.50;;;;;24.20;99568.00;;;;2059770;28;20246;-67
2021/07/31 00:21:33;;;;;;;4.80;1.80;;;;;24.20;99567.00;;;;2058903;28;20229;-66
2021/07/31 00:22:33;;;;;;;3.63;1.50;;;;;24.20;99557.00;;;;2055306;28;20219;-66
2021/07/31 00:23:34;;;;;;;2.97;1.20;;;;;24.20;99576.00;;;;2057067;28;20572;-67
2021/07/31 00:24:34;;;;;;;2.00;1.20;;;;;24.30;99574.00;;;;2056826;28;20246;-66
2021/07/31 00:25:35;;;;;;;2.30;1.53;;;;;24.20;99576.00;;;;2055904;28;20218;-66
2021/07/31 00:26:35;;;;;;;4.60;1.77;;;;;24.30;99569.00;;;;2059679;28;20214;-66
2021/07/31 00:27:36;;;;;;;3.33;1.47;;;;;24.20;99572.00;;;;2061290;28;20219;-66
2021/07/31 00:28:36;;;;;;;2.00;1.30;;;;;24.20;99573.00;;;;2058754;28;20294;-66
2021/07/31 00:29:36;;;;;;;2.83;1.37;;;;;24.20;99564.00;;;;2055200;28;20219;-66
2021/07/31 00:30:36;;;;;;;2.37;1.47;;;;;24.20;99569.00;;;;2058869;28;20230;-66
2021/07/31 00:31:37;;;;;;;2.27;1.57;;;;;24.30;99564.00;;;;2058423;28;20211;-66
2021/07/31 00:32:37;;;;;;;2.27;1.23;;;;;24.30;99560.00;;;;2058646;28;20233;-66
2021/07/31 00:33:37;;;;;;;2.13;1.60;;;;;24.20;99560.00;;;;2058146;28;20475;-66
2021/07/31 00:34:38;;;;;;;2.83;1.30;;;;;24.20;99563.00;;;;2057491;28;20568;-66
2021/07/31 00:35:38;;;;;;;2.80;1.50;;;;;24.20;99564.00;;;;2062114;28;20676;-67
2021/07/31 00:36:38;;;;;;;2.10;1.40;;;;;24.20;99566.00;;;;2045032;28;20586;-67
2021/07/31 00:37:39;;;;;;;3.73;1.70;;;;;24.20;99568.00;;;;2054795;28;20710;-68
2021/07/31 00:38:39;;;;;;;2.23;1.20;;;;;24.20;99561.00;;;;2054973;28;20246;-66
2021/07/31 00:39:39;;;;;;;2.40;1.53;;;;;24.20;99563.00;;;;2058904;28;20298;-66
2021/07/31 00:40:41;;;;;;;1.87;1.10;;;;;24.20;99566.00;;;;2058368;28;20222;-66
2021/07/31 00:41:41;;;;;;;2.72;1.60;;;;;24.20;99568.00;;;;2061431;28;20245;-66
2021/07/31 00:42:42;;;;;;;2.97;1.27;;;;;24.20;99572.00;;;;2059526;28;20265;-66
2021/07/31 00:43:42;;;;;;;2.23;1.20;;;;;24.20;99555.00;;;;2059520;28;20226;-66
2021/07/31 00:44:42;;;;;;;2.40;1.47;;;;;24.20;99554.00;;;;2063010;28;20265;-66
2021/07/31 00:45:43;;;;;;;3.73;1.20;;;;;24.20;99568.00;;;;2059606;28;20211;-68
2021/07/31 00:46:43;;;;;;;1.60;1.30;;;;;24.20;99571.00;;;;2039863;29;20642;-67
2021/07/31 00:47:44;;;;;;;1.40;1.30;;;;;24.20;99571.00;;;;2042464;29;20216;-67
2021/07/31 00:48:44;;;;;;;3.70;1.20;;;;;24.20;99557.00;;;;2041724;29;20220;-66
2021/07/31 00:49:45;;;;;;;3.60;1.27;;;;;24.20;99563.00;;;;2048683;28;20223;-68
2021/07/31 00:50:45;;;;;;;2.13;1.40;;;;;24.20;99563.00;;;;2058526;28;20215;-66
2021/07/31 00:51:45;;;;;;;2.23;1.30;;;;;24.20;99564.00;;;;2059526;28;20298;-67
2021/07/31 00:52:46;;;;;;;1.83;1.43;;;;;24.20;99560.00;;;;2050987;28;20589;-66
2021/07/31 00:53:46;;;;;;;2.40;1.00;;;;;24.20;99555.00;;;;2044639;29;20684;-66
2021/07/31 00:54:46;;;;;;;1.80;1.00;;;;;24.20;99560.00;;;;2052193;28;20747;-67
2021/07/31 00:55:47;;;;;;;2.40;1.27;;;;;24.20;99567.00;;;;2051732;28;20687;-67
2021/07/31 00:56:48;;;;;;;2.90;1.20;;;;;24.20;99552.00;;;;2051682;28;20219;-66
2021/07/31 00:57:48;;;;;;;1.93;1.17;;;;;24.20;99555.00;;;;2047942;28;20455;-66
2021/07/31 00:58:48;;;;;;;1.83;1.10;;;;;24.20;99553.00;;;;2039396;29;20216;-67
2021/07/31 00:59:49;;;;;;;1.50;0.90;;;;;24.20;99543.00;;;;2043970;29;20209;-67
2021/07/31 01:00:50;;;;;;;1.70;1.10;;;;;24.20;99561.00;;;;2055652;28;20235;-67
2021/07/31 01:01:51;;;;;;;1.77;1.02;;;;;24.20;99562.00;;;;2058676;28;20451;-66
2021/07/31 01:02:51;;;;;;;1.93;1.20;;;;;24.10;99556.00;;;;2041620;28;20212;-67
2021/07/31 01:03:51;;;;;;;2.63;1.30;;;;;24.10;99546.00;;;;2050501;28;20220;-68
2021/07/31 01:04:52;;;;;;;2.40;1.20;;;;;24.10;99548.00;;;;2062884;28;20207;-67
2021/07/31 01:05:52;;;;;;;2.43;1.20;;;;;24.20;99547.00;;;;2053105;28;20205;-66
2021/07/31 01:06:52;;;;;;;2.00;1.10;;;;;24.20;99548.00;;;;2050621;28;20216;-66
2021/07/31 01:07:53;;;;;;;1.60;1.10;;;;;24.20;99550.00;;;;2056735;28;20231;-66
2021/07/31 01:08:53;;;;;;;1.30;1.00;;;;;24.10;99550.00;;;;2059742;28;20214;-66
2021/07/31 01:09:53;;;;;;;1.80;1.20;;;;;24.10;99551.00;;;;2059407;28;20225;-66
2021/07/31 01:10:54;;;;;;;2.60;0.97;;;;;24.20;99556.00;;;;2048840;28;20220;-66
2021/07/31 01:11:54;;;;;;;2.03;1.00;;;;;24.10;99556.00;;;;2051925;28;20230;-67
2021/07/31 01:12:55;;;;;;;1.50;1.10;;;;;24.10;99557.00;;;;2052073;28;20219;-67
2021/07/31 01:13:55;;;;;;;2.20;1.13;;;;;24.10;99568.00;;;;2051082;28;20220;-66
2021/07/31 01:14:56;;;;;;;1.07;0.90;;;;;24.10;99550.00;;;;2061311;28;20469;-67
2021/07/31 01:16:09;;;;;;;2.30;1.10;;;;;24.10;99561.00;;;;2060019;28;20227;-67
2021/07/31 01:17:12;;;;;;;2.60;1.20;;;;;24.10;99560.00;;;;2050659;28;20367;-66
2021/07/31 01:18:12;;;;;;;1.70;1.10;;;;;24.10;99547.00;;;;2059846;28;20215;-66
2021/07/31 01:19:13;;;;;;;2.30;1.07;;;;;24.10;99553.00;;;;2060052;28;20265;-66
2021/07/31 01:20:13;;;;;;;3.03;1.20;;;;;24.10;99560.00;;;;2059570;28;20219;-66
2021/07/31 01:21:39;;;;;;;1.60;1.10;;;;;24.20;99550.00;;;;2060029;28;20310;-66
2021/07/31 01:22:39;;;;;;;2.40;1.10;;;;;24.20;99556.00;;;;2058244;28;20207;-66
2021/07/31 01:23:40;;;;;;;2.00;1.37;;;;;24.20;99556.00;;;;2061621;28;20219;-66
2021/07/31 01:24:40;;;;;;;1.70;1.20;;;;;24.20;99560.00;;;;2063700;28;20234;-66
2021/07/31 01:25:40;;;;;;;1.30;1.10;;;;;24.20;99564.00;;;;2059985;28;20257;-66
2021/07/31 01:26:43;;;;;;;1.50;1.20;;;;;24.20;99557.00;;;;2058304;28;21270;-66
2021/07/31 01:27:44;;;;;;;1.45;0.90;;;;;24.20;99563.00;;;;2060756;28;20277;-66
2021/07/31 01:28:44;;;;;;;1.40;0.90;;;;;24.20;99553.00;;;;2060816;28;20247;-66
2021/07/31 01:29:44;;;;;;;2.03;1.13;;;;;24.10;99542.00;;;;2060140;28;20206;-67
2021/07/31 01:30:45;;;;;;;1.60;1.03;;;;;24.10;99543.00;;;;2055992;28;20216;-66
2021/07/31 01:31:45;;;;;;;1.60;1.13;;;;;24.10;99549.00;;;;2062665;28;20238;-66
2021/07/31 01:32:46;;;;;;;2.00;1.00;;;;;24.10;99549.00;;;;2060874;28;21038;-66
2021/07/31 01:33:46;;;;;;;1.50;0.97;;;;;24.10;99551.00;;;;2060089;28;20447;-66
2021/07/31 01:34:46;;;;;;;2.40;1.00;;;;;24.10;99545.00;;;;2061605;28;20310;-66
2021/07/31 01:35:47;;;;;;;1.23;0.83;;;;;24.10;99542.00;;;;2064635;28;20218;-67
2021/07/31 01:36:47;;;;;;;2.40;1.00;;;;;24.20;99545.00;;;;2055905;28;20230;-66
2021/07/31 01:37:48;;;;;;;3.63;1.20;;;;;24.10;99545.00;;;;2047974;28;20494;-66
2021/07/31 01:38:48;;;;;;;2.83;1.23;;;;;24.10;99556.00;;;;2054429;28;20226;-66
2021/07/31 01:39:48;;;;;;;2.37;0.83;;;;;24.10;99546.00;;;;2056136;28;20216;-68
2021/07/31 01:40:49;;;;;;;1.80;1.03;;;;;24.10;99552.00;;;;2062442;28;20207;-67
2021/07/31 01:41:49;;;;;;;2.17;1.10;;;;;24.10;99546.00;;;;2057069;28;20219;-67
2021/07/31 01:42:49;;;;;;;2.13;1.17;;;;;24.10;99540.00;;;;2060828;28;20266;-66
2021/07/31 01:43:50;;;;;;;1.20;0.90;;;;;24.10;99546.00;;;;2060779;28;20877;-66
2021/07/31 01:44:50;;;;;;;3.50;1.17;;;;;24.10;99546.00;;;;2061626;28;20709;-66
2021/07/31 01:45:51;;;;;;;1.93;1.13;;;;;24.20;99551.00;;;;2059858;28;20219;-67
2021/07/31 01:46:51;;;;;;;4.17;1.10;;;;;24.10;99549.00;;;;2057148;28;20227;-67
2021/07/31 01:47:51;;;;;;;2.73;0.90;;;;;24.10;99548.00;;;;2062475;28;20223;-67
2021/07/31 01:48:52;;;;;;;3.07;1.10;;;;;24.10;99545.00;;;;2059675;28;20242;-67
2021/07/31 01:49:52;;;;;;;3.90;1.33;;;;;24.10;99556.00;;;;2059372;28;20221;-66
2021/07/31 01:50:52;;;;;;;1.20;1.00;;;;;24.10;99550.00;;;;2059197;28;20348;-66
2021/07/31 01:51:53;;;;;;;7.63;1.23;;;;;24.10;99556.00;;;;2059587;28;20225;-66
2021/07/31 01:52:53;;;;;;;2.23;1.13;;;;;24.10;99548.00;;;;2059819;28;20223;-66
2021/07/31 01:53:54;;;;;;;2.00;1.20;;;;;24.10;99549.00;;;;2056791;28;20254;-66
2021/07/31 01:54:54;;;;;;;1.90;1.10;;;;;24.10;99553.00;;;;2059717;28;20242;-67
2021/07/31 01:55:54;;;;;;;2.07;1.40;;;;;24.10;99557.00;;;;2059913;28;20215;-66
2021/07/31 01:56:55;;;;;;;3.33;1.00;;;;;24.10;99553.00;;;;2059661;28;20597;-67
2021/07/31 01:57:55;;;;;;;1.43;0.93;;;;;24.10;99554.00;;;;2058333;28;20583;-66
2021/07/31 01:58:57;;;;;;;2.43;1.27;;;;;24.10;99544.00;;;;2059643;28;20695;-68
2021/07/31 01:59:57;;;;;;;2.47;1.05;;;;;24.10;99550.00;;;;2056584;28;20282;-66
2021/07/31 02:00:57;;;;;;;3.23;1.40;;;;;24.10;99551.00;;;;2058241;28;20220;-65
2021/07/31 02:01:58;;;;;;;2.20;1.10;;;;;24.10;99556.00;;;;2059717;28;20306;-67
2021/07/31 02:02:58;;;;;;;1.67;1.03;;;;;24.10;99562.00;;;;2059809;28;20699;-67
2021/07/31 02:03:59;;;;;;;2.20;0.90;;;;;24.10;99551.00;;;;2060223;28;20224;-67
2021/07/31 02:04:59;;;;;;;1.83;1.00;;;;;24.10;99549.00;;;;2062454;28;20250;-66
2021/07/31 02:05:59;;;;;;;1.87;1.07;;;;;24.10;99547.00;;;;2060290;28;20218;-68
2021/07/31 02:07:01;;;;;;;2.90;0.80;;;;;24.10;99550.00;;;;2062906;28;20220;-67
2021/07/31 02:08:01;;;;;;;2.58;0.90;;;;;24.10;99553.00;;;;2060424;28;20212;-65
2021/07/31 02:09:01;;;;;;;2.27;1.20;;;;;24.10;99537.00;;;;2058711;28;20247;-66
2021/07/31 02:10:02;;;;;;;1.30;0.90;;;;;24.10;99535.00;;;;2056104;28;20207;-66
2021/07/31 02:11:03;;;;;;;1.30;1.10;;;;;24.10;99537.00;;;;2059368;28;20769;-67
2021/07/31 02:12:03;;;;;;;1.17;0.80;;;;;24.10;99533.00;;;;2063344;28;20302;-67
2021/07/31 02:13:04;;;;;;;2.40;1.07;;;;;24.10;99543.00;;;;2057341;28;20638;-66
2021/07/31 02:14:04;;;;;;;1.70;1.00;;;;;24.10;99533.00;;;;2060373;28;20645;-66
2021/07/31 02:15:05;;;;;;;3.30;1.13;;;;;24.10;99543.00;;;;2060381;28;20309;-66
2021/07/31 02:16:06;;;;;;;1.63;1.20;;;;;24.10;99545.00;;;;2060070;28;20322;-67
2021/07/31 02:17:06;;;;;;;2.00;1.00;;;;;24.10;99541.00;;;;2055839;28;20602;-66
2021/07/31 02:18:06;;;;;;;2.40;0.90;;;;;24.10;99545.00;;;;2059399;28;20226;-66
2021/07/31 02:19:07;;;;;;;2.67;1.10;;;;;24.10;99533.00;;;;2058791;28;20262;-66
2021/07/31 02:20:07;;;;;;;1.47;0.80;;;;;24.10;99553.00;;;;2060161;28;20244;-67
2021/07/31 02:21:10;;;;;;;3.00;1.10;;;;;24.10;99531.00;;;;2057842;28;20222;-66
2021/07/31 02:22:11;;;;;;;1.70;1.05;;;;;24.10;99536.00;;;;2058107;28;20567;-66
2021/07/31 02:23:11;;;;;;;2.07;0.90;;;;;24.10;99540.00;;;;2061054;28;20236;-67
2021/07/31 02:24:11;;;;;;;2.60;1.07;;;;;24.10;99547.00;;;;2059606;28;20213;-66
2021/07/31 02:25:12;;;;;;;2.00;1.07;;;;;24.10;99541.00;;;;2058937;28;20221;-66
2021/07/31 02:26:12;;;;;;;2.47;0.83;;;;;24.10;99542.00;;;;2060412;28;20200;-66
2021/07/31 02:27:12;;;;;;;1.37;0.90;;;;;24.10;99539.00;;;;2061412;28;20219;-67
2021/07/31 02:28:13;;;;;;;1.70;1.00;;;;;24.10;99539.00;;;;2059538;28;20478;-66
2021/07/31 02:29:13;;;;;;;2.73;1.20;;;;;24.10;99537.00;;;;2050580;28;20856;-68
2021/07/31 02:30:14;;;;;;;1.83;1.27;;;;;24.10;99544.00;;;;2061127;28;20207;-66
2021/07/31 02:31:14;;;;;;;2.60;1.07;;;;;24.10;99540.00;;;;2059027;28;20210;-66
2021/07/31 02:32:14;;;;;;;3.50;1.27;;;;;24.10;99536.00;;;;2056052;28;20212;-66
2021/07/31 02:33:15;;;;;;;1.50;0.90;;;;;24.10;99555.00;;;;2059584;28;20702;-66
2021/07/31 02:34:15;;;;;;;1.70;1.03;;;;;24.10;99546.00;;;;2060715;28;20781;-66
2021/07/31 02:35:15;;;;;;;2.03;1.10;;;;;24.10;99543.00;;;;2063668;28;20690;-67
2021/07/31 02:36:16;;;;;;;1.70;1.20;;;;;24.10;99545.00;;;;2062937;28;20277;-66
2021/07/31 02:37:16;;;;;;;2.80;1.20;;;;;24.10;99539.00;;;;2060519;28;20358;-66
2021/07/31 02:38:16;;;;;;;2.10;1.00;;;;;24.10;99542.00;;;;2056885;28;20215;-66
2021/07/31 02:39:17;;;;;;;2.33;1.20;;;;;24.00;99542.00;;;;2060205;28;20212;-67
2021/07/31 02:40:17;;;;;;;1.47;1.20;;;;;24.10;99541.00;;;;2059358;28;20254;-67
2021/07/31 02:41:19;;;;;;;3.10;1.30;;;;;24.10;99538.00;;;;2059885;28;20265;-66
2021/07/31 02:42:19;;;;;;;2.00;1.05;;;;;24.10;99536.00;;;;2059404;28;20222;-66
2021/07/31 02:43:20;;;;;;;2.90;1.00;;;;;24.10;99531.00;;;;2055280;28;20269;-67
2021/07/31 02:44:20;;;;;;;1.90;1.30;;;;;24.10;99535.00;;;;2062001;28;20698;-66
2021/07/31 02:45:20;;;;;;;2.63;1.20;;;;;24.10;99535.00;;;;2051497;28;20319;-66
2021/07/31 02:46:20;;;;;;;2.60;1.20;;;;;24.10;99534.00;;;;2051729;28;20707;-67
2021/07/31 02:47:21;;;;;;;2.83;1.30;;;;;24.00;99531.00;;;;2060151;28;20598;-66
2021/07/31 02:48:21;;;;;;;1.50;1.10;;;;;24.00;99540.00;;;;2061481;28;20633;-66
2021/07/31 02:49:21;;;;;;;3.27;1.30;;;;;24.10;99524.00;;;;2059302;28;20245;-66
2021/07/31 02:50:22;;;;;;;3.27;1.10;;;;;24.00;99526.00;;;;2055434;28;20207;-66
2021/07/31 02:51:22;;;;;;;3.57;0.97;;;;;24.10;99533.00;;;;2060099;28;20215;-67
2021/07/31 02:52:22;;;;;;;2.00;0.97;;;;;24.00;99531.00;;;;2063795;28;20701;-66
2021/07/31 02:53:23;;;;;;;2.30;1.30;;;;;24.10;99528.00;;;;2057302;28;20699;-66
2021/07/31 02:54:23;;;;;;;1.30;1.17;;;;;24.10;99535.00;;;;2059304;28;20694;-65
2021/07/31 02:55:23;;;;;;;1.60;1.20;;;;;24.10;99533.00;;;;2059229;28;20229;-66
2021/07/31 02:56:24;;;;;;;1.77;1.10;;;;;24.10;99524.00;;;;2059368;28;20296;-66
2021/07/31 02:57:24;;;;;;;2.90;1.30;;;;;24.10;99531.00;;;;2058060;28;20231;-67
2021/07/31 02:58:24;;;;;;;1.70;1.10;;;;;24.00;99522.00;;;;2056398;28;20227;-66
2021/07/31 02:59:25;;;;;;;2.80;1.20;;;;;24.00;99512.00;;;;2050651;28;20257;-66
2021/07/31 03:00:25;;;;;;;1.50;1.30;;;;;24.00;99527.00;;;;2050217;28;20234;-67
2021/07/31 03:01:25;;;;;;;2.30;1.10;;;;;24.00;99520.00;;;;2055774;28;20223;-67
2021/07/31 03:02:26;;;;;;;1.33;1.20;;;;;24.00;99522.00;;;;2059389;28;20219;-67
2021/07/31 03:03:26;;;;;;;2.70;1.07;;;;;24.00;99519.00;;;;2041358;28;20220;-66
2021/07/31 03:04:27;;;;;;;1.80;1.00;;;;;24.00;99520.00;;;;2051330;28;20222;-65
2021/07/31 03:05:27;;;;;;;3.33;1.30;;;;;24.00;99520.00;;;;2063726;28;20219;-67
2021/07/31 03:06:27;;;;;;;3.63;1.10;;;;;24.00;99518.00;;;;2058938;28;20246;-66
2021/07/31 03:07:28;;;;;;;3.43;1.30;;;;;24.00;99515.00;;;;2062081;28;20215;-66
2021/07/31 03:08:28;;;;;;;2.87;1.10;;;;;24.00;99522.00;;;;2058901;28;20206;-67
2021/07/31 03:09:29;;;;;;;1.37;0.90;;;;;24.00;99521.00;;;;2058897;28;20223;-67
2021/07/31 03:10:29;;;;;;;1.73;0.90;;;;;24.00;99520.00;;;;2056639;28;20223;-67
2021/07/31 03:11:29;;;;;;;2.80;1.17;;;;;24.00;99512.00;;;;2059259;28;20214;-67
2021/07/31 03:12:30;;;;;;;1.80;1.30;;;;;24.00;99512.00;;;;2055652;28;20235;-66
2021/07/31 03:13:31;;;;;;;1.25;0.85;;;;;24.00;99513.00;;;;2059324;28;20617;-67
2021/07/31 03:14:31;;;;;;;2.70;1.13;;;;;24.00;99512.00;;;;2057779;28;20223;-67
2021/07/31 03:15:31;;;;;;;2.60;1.20;;;;;24.00;99508.00;;;;2056847;28;20274;-66
2021/07/31 03:16:32;;;;;;;2.00;1.07;;;;;24.00;99507.00;;;;2062754;28;20268;-66
2021/07/31 03:17:32;;;;;;;1.93;1.10;;;;;24.00;99508.00;;;;2056715;28;20263;-66
2021/07/31 03:18:32;;;;;;;1.87;1.00;;;;;24.00;99506.00;;;;2059790;28;20216;-66
2021/07/31 03:19:33;;;;;;;2.07;1.27;;;;;24.00;99507.00;;;;2056728;28;20223;-67
2021/07/31 03:20:33;;;;;;;2.63;1.00;;;;;24.00;99494.00;;;;2058225;28;20235;-66
2021/07/31 03:21:33;;;;;;;3.30;1.17;;;;;24.00;99496.00;;;;2060021;28;20305;-66
2021/07/31 03:22:34;;;;;;;3.27;1.23;;;;;24.00;99498.00;;;;2059797;28;20219;-66
2021/07/31 03:23:34;;;;;;;1.43;0.87;;;;;24.00;99502.00;;;;2059094;28;20227;-66
2021/07/31 03:24:34;;;;;;;2.80;1.07;;;;;24.00;99492.00;;;;2060155;28;20697;-67
2021/07/31 03:25:35;;;;;;;4.27;1.27;;;;;24.00;99498.00;;;;2059247;28;20678;-67
2021/07/31 03:26:35;;;;;;;2.43;1.13;;;;;24.00;99501.00;;;;2059277;28;20721;-68
2021/07/31 03:27:35;;;;;;;3.00;1.10;;;;;24.00;99493.00;;;;2057721;28;20686;-66
2021/07/31 03:28:36;;;;;;;1.37;1.07;;;;;24.00;99506.00;;;;2060290;28;20709;-67
2021/07/31 03:29:36;;;;;;;2.30;1.00;;;;;24.00;99498.00;;;;2059341;28;20223;-66
2021/07/31 03:30:43;;;;;;;2.80;1.20;;;;;24.00;99506.00;;;;2059445;28;20223;-67
2021/07/31 03:31:44;;;;;;;1.85;1.33;;;;;24.00;99504.00;;;;2056450;28;20704;-66
2021/07/31 03:32:44;;;;;;;1.63;1.00;;;;;24.00;99509.00;;;;2059187;28;20215;-66
2021/07/31 03:33:44;;;;;;;1.67;1.20;;;;;24.00;99499.00;;;;2059851;28;20207;-67
2021/07/31 03:34:45;;;;;;;1.63;0.97;;;;;24.00;99498.00;;;;2059997;28;20310;-66
2021/07/31 03:35:45;;;;;;;2.00;1.30;;;;;24.00;99490.00;;;;2061062;28;20220;-66
2021/07/31 03:36:51;;;;;;;1.63;1.00;;;;;24.00;99500.00;;;;2063418;28;20211;-67
2021/07/31 03:37:51;;;;;;;2.03;1.25;;;;;24.00;99495.00;;;;2056184;28;20216;-66
2021/07/31 03:38:52;;;;;;;2.17;1.20;;;;;24.00;99494.00;;;;2047605;28;20684;-66
2021/07/31 03:39:52;;;;;;;3.30;1.03;;;;;24.00;99503.00;;;;2050591;28;20687;-66
2021/07/31 03:40:53;;;;;;;2.10;1.00;;;;;24.00;99498.00;;;;2053276;28;20307;-66
2021/07/31 03:41:55;;;;;;;1.33;1.00;;;;;24.00;99501.00;;;;2055064;28;20481;-67
2021/07/31 03:42:55;;;;;;;3.28;1.10;;;;;24.00;99500.00;;;;2061211;28;20207;-66
2021/07/31 03:43:56;;;;;;;2.70;1.23;;;;;24.00;99504.00;;;;2059633;28;20227;-66
2021/07/31 03:44:56;;;;;;;1.93;0.90;;;;;24.00;99496.00;;;;2063660;28;20215;-67
2021/07/31 03:45:56;;;;;;;3.80;1.53;;;;;24.00;99506.00;;;;2059652;28;20258;-68
2021/07/31 03:46:57;;;;;;;3.50;1.23;;;;;23.90;99514.00;;;;2057604;28;20725;-68
2021/07/31 03:47:57;;;;;;;1.20;0.90;;;;;24.00;99503.00;;;;2058977;28;20736;-67
2021/07/31 03:48:57;;;;;;;2.70;1.53;;;;;24.00;99506.00;;;;2058877;28;20226;-66
2021/07/31 03:49:58;;;;;;;1.90;1.03;;;;;24.00;99515.00;;;;2043154;29;20216;-67
2021/07/31 03:50:58;;;;;;;2.37;1.20;;;;;24.00;99519.00;;;;2044586;29;20216;-66
2021/07/31 03:51:58;;;;;;;2.90;1.40;;;;;24.00;99507.00;;;;2050309;28;20211;-67
2021/07/31 03:52:59;;;;;;;2.70;0.90;;;;;24.00;99519.00;;;;2058939;28;20230;-66
2021/07/31 03:53:59;;;;;;;1.80;1.10;;;;;24.00;99514.00;;;;2058395;28;20262;-66
2021/07/31 03:54:59;;;;;;;1.63;1.10;;;;;24.00;99515.00;;;;2055618;28;20211;-67
2021/07/31 03:56:00;;;;;;;1.50;1.07;;;;;24.00;99508.00;;;;2061380;28;20226;-68
2021/07/31 03:57:00;;;;;;;2.50;1.00;;;;;24.00;99512.00;;;;2059826;28;20210;-65
2021/07/31 03:58:01;;;;;;;2.23;1.27;;;;;24.00;99518.00;;;;2059845;28;20215;-66
2021/07/31 03:59:01;;;;;;;2.50;1.38;;;;;24.00;99514.00;;;;2059536;28;20286;-66
2021/07/31 04:00:03;;;;;;;2.60;1.10;;;;;24.00;99523.00;;;;2063397;28;20215;-66
2021/07/31 04:01:03;;;;;;;1.50;1.13;;;;;24.00;99520.00;;;;2046447;28;20317;-66
2021/07/31 04:02:03;;;;;;;1.60;1.10;;;;;24.00;99511.00;;;;2058244;28;20270;-67
2021/07/31 04:03:04;;;;;;;1.70;1.20;;;;;24.00;99510.00;;;;2059619;28;20218;-68
2021/07/31 04:04:04;;;;;;;1.03;0.70;;;;;23.90;99514.00;;;;2059658;28;20307;-66
2021/07/31 04:05:05;;;;;;;1.83;1.03;;;;;24.00;99504.00;;;;2062160;28;20243;-67
2021/07/31 04:06:05;;;;;;;2.63;1.27;;;;;24.00;99502.00;;;;2059677;28;20665;-66
2021/07/31 04:07:05;;;;;;;2.10;1.43;;;;;24.00;99508.00;;;;2063233;28;20224;-66
2021/07/31 04:08:06;;;;;;;3.37;1.30;;;;;24.00;99505.00;;;;2059731;28;20223;-66
2021/07/31 04:09:06;;;;;;;2.73;1.30;;;;;24.00;99509.00;;;;2060720;28;20230;-66
2021/07/31 04:10:07;;;;;;;2.30;1.30;;;;;24.00;99498.00;;;;2058650;28;20222;-66
2021/07/31 04:11:08;;;;;;;1.87;1.03;;;;;24.00;99516.00;;;;2055064;28;20219;-66
2021/07/31 04:12:08;;;;;;;2.50;1.30;;;;;24.00;99504.00;;;;2058035;28;20965;-66
2021/07/31 04:13:08;;;;;;;4.17;1.30;;;;;23.90;99503.00;;;;2058826;28;20230;-66
2021/07/31 04:14:09;;;;;;;2.37;1.10;;;;;24.00;99510.00;;;;2060892;28;20210;-66
2021/07/31 04:15:10;;;;;;;1.57;1.00;;;;;24.00;99507.00;;;;2059168;28;20284;-66
2021/07/31 04:16:10;;;;;;;3.13;1.10;;;;;23.90;99523.00;;;;2059847;28;20689;-66
2021/07/31 04:17:12;;;;;;;1.40;1.03;;;;;23.90;99510.00;;;;2059577;28;20825;-67
2021/07/31 04:18:12;;;;;;;1.95;1.20;;;;;24.00;99509.00;;;;2059474;28;20214;-66
2021/07/31 04:19:12;;;;;;;4.53;1.63;;;;;23.90;99513.00;;;;2059240;28;20269;-66
2021/07/31 04:20:13;;;;;;;2.77;1.27;;;;;23.90;99514.00;;;;2058131;28;20347;-66
2021/07/31 04:21:13;;;;;;;2.23;1.10;;;;;23.90;99524.00;;;;2057025;28;20223;-68
2021/07/31 04:22:13;;;;;;;2.60;1.50;;;;;23.90;99520.00;;;;2056783;28;20298;-66
2021/07/31 04:23:14;;;;;;;2.50;1.53;;;;;24.00;99525.00;;;;2058978;28;20211;-67
2021/07/31 04:24:14;;;;;;;2.70;1.67;;;;;24.00;99519.00;;;;2059609;28;20219;-66
2021/07/31 04:25:14;;;;;;;1.80;1.17;;;;;23.90;99520.00;;;;2057757;28;20289;-66
2021/07/31 04:26:16;;;;;;;1.67;1.17;;;;;23.90;99526.00;;;;2058848;28;20235;-66
2021/07/31 04:27:18;;;;;;;2.38;1.45;;;;;23.90;99522.00;;;;2058686;28;20234;-66
2021/07/31 04:28:18;;;;;;;1.45;1.10;;;;;23.90;99530.00;;;;2059915;28;20214;-66
2021/07/31 04:29:19;;;;;;;2.57;1.50;;;;;23.90;99521.00;;;;2048932;28;20223;-66
2021/07/31 04:30:19;;;;;;;1.73;1.00;;;;;23.90;99514.00;;;;2057288;28;20298;-66
2021/07/31 04:31:19;;;;;;;2.27;1.10;;;;;24.00;99521.00;;;;2059988;28;20219;-67
2021/07/31 04:32:20;;;;;;;2.70;0.90;;;;;23.90;99526.00;;;;2060497;28;20219;-66
2021/07/31 04:33:20;;;;;;;2.37;1.40;;;;;23.90;99524.00;;;;2057967;28;20605;-67
2021/07/31 04:34:20;;;;;;;1.83;1.20;;;;;24.00;99530.00;;;;2062426;28;20215;-66
2021/07/31 04:35:21;;;;;;;2.50;1.20;;;;;24.00;99537.00;;;;2064207;28;20234;-66
2021/07/31 04:36:21;;;;;;;2.10;1.13;;;;;24.00;99543.00;;;;2060479;28;20260;-66
2021/07/31 04:37:21;;;;;;;1.93;1.30;;;;;23.90;99550.00;;;;2059581;28;20218;-66
2021/07/31 04:38:22;;;;;;;2.90;1.17;;;;;23.90;99538.00;;;;2059950;28;20218;-66
2021/07/31 04:39:22;;;;;;;3.30;1.60;;;;;23.90;99537.00;;;;2059222;28;20967;-66
2021/07/31 04:40:22;;;;;;;2.60;1.10;;;;;23.90;99531.00;;;;2060025;28;20690;-67
2021/07/31 04:41:23;;;;;;;2.60;1.20;;;;;23.90;99546.00;;;;2063052;28;20218;-66
2021/07/31 04:42:23;;;;;;;2.40;1.30;;;;;23.90;99539.00;;;;2061537;28;20225;-68
2021/07/31 04:43:23;;;;;;;1.90;1.40;;;;;23.90;99530.00;;;;2061241;28;20219;-66
2021/07/31 04:44:24;;;;;;;2.20;1.10;;;;;23.90;99546.00;;;;2059681;28;20210;-65
2021/07/31 04:45:24;;;;;;;1.67;1.13;;;;;24.00;99540.00;;;;2060472;28;20293;-65
2021/07/31 04:46:25;;;;;;;1.90;1.10;;;;;24.00;99552.00;;;;2059232;28;20222;-67
2021/07/31 04:47:25;;;;;;;1.43;1.00;;;;;24.00;99538.00;;;;2059620;28;20223;-66
2021/07/31 04:48:26;;;;;;;3.00;1.23;;;;;23.90;99554.00;;;;2062951;28;20211;-66
2021/07/31 04:49:26;;;;;;;2.83;1.50;;;;;23.90;99543.00;;;;2051347;28;20750;-65
2021/07/31 04:50:26;;;;;;;1.70;1.30;;;;;23.90;99541.00;;;;2060194;28;20601;-65
2021/07/31 04:51:27;;;;;;;2.13;1.23;;;;;23.90;99536.00;;;;2060846;28;20247;-65
2021/07/31 04:52:27;;;;;;;4.00;1.30;;;;;23.90;99533.00;;;;2060966;28;20218;-66
2021/07/31 04:53:27;;;;;;;2.03;1.17;;;;;23.90;99542.00;;;;2057275;28;20768;-65
2021/07/31 04:54:29;;;;;;;1.40;1.10;;;;;23.90;99524.00;;;;2061170;28;20706;-66
2021/07/31 04:55:29;;;;;;;2.63;1.40;;;;;23.90;99544.00;;;;2062683;28;20712;-66
2021/07/31 04:56:29;;;;;;;1.80;1.20;;;;;23.90;99544.00;;;;2056735;28;20295;-65
2021/07/31 04:57:30;;;;;;;1.70;1.23;;;;;23.90;99551.00;;;;2060314;28;20210;-65
2021/07/31 04:58:30;;;;;;;2.50;1.23;;;;;24.00;99538.00;;;;2061172;28;20208;-66
2021/07/31 04:59:30;;;;;;;3.00;1.50;;;;;24.00;99547.00;;;;2062867;28;20762;-65
2021/07/31 05:00:31;;;;;;;2.90;1.23;;;;;23.90;99544.00;;;;2059704;28;20214;-65
2021/07/31 05:01:31;;;;;;;2.20;1.40;;;;;23.90;99535.00;;;;2060212;28;20228;-65
2021/07/31 05:02:32;;;;;;;2.83;1.37;;;;;23.90;99541.00;;;;2060672;28;20211;-66
2021/07/31 05:03:33;;;;;;;1.40;0.90;;;;;23.90;99549.00;;;;2063037;28;20620;-67